Time;durP1;ratioP1;P1;durP2;ratioP2;P2;SDS_P1;SDS_P2;PMS_P1;PMS_P2;Temp;Humidity;BMP_temperature;BMP_pressure;BME280_temperature;BME280_humidity;BME280_pressure;Samples;Min_cycle;Max_cycle;Signal;HPM_P1;HPM_P2
2024/01/03 00:00:44;;;;;;;8.02;1.73;;;;;;;6.63;100.00;97717.56;5043704;28;20056;-73
2024/01/03 00:03:31;;;;;;;8.65;1.40;;;;;;;6.62;100.00;97744.81;5048306;28;20049;-72
2024/01/03 00:06:17;;;;;;;10.70;1.65;;;;;;;6.61;100.00;97773.81;5049507;28;20045;-73
2024/01/03 00:09:03;;;;;;;10.20;1.50;;;;;;;6.60;100.00;97786.13;5061401;28;20075;-72
2024/01/03 00:11:51;;;;;;;10.82;1.38;;;;;;;6.59;100.00;97773.13;5071857;28;20071;-74
2024/01/03 00:14:37;;;;;;;5.13;1.60;;;;;;;6.57;100.00;97778.50;5074582;28;20040;-72
2024/01/03 00:17:23;;;;;;;11.88;1.55;;;;;;;6.56;100.00;97816.25;5054399;28;20048;-73
2024/01/03 00:20:09;;;;;;;9.65;1.42;;;;;;;6.56;100.00;97800.47;5069254;28;20501;-73
2024/01/03 00:22:55;;;;;;;5.00;1.33;;;;;;;6.57;100.00;97799.53;5079607;28;20109;-74
2024/01/03 00:25:40;;;;;;;5.47;1.38;;;;;;;6.59;100.00;97805.47;5073711;28;20045;-73
2024/01/03 00:28:26;;;;;;;4.53;1.17;;;;;;;6.60;100.00;97815.03;5068273;28;20047;-73
2024/01/03 00:31:38;;;;;;;11.38;1.75;;;;;;;6.63;100.00;97819.22;5069386;28;20107;-74
2024/01/03 00:34:44;;;;;;;4.78;1.90;;;;;;;6.63;100.00;97827.13;5069446;28;20044;-74
2024/01/03 00:37:33;;;;;;;11.90;1.70;;;;;;;6.61;100.00;97840.41;5066866;28;20048;-73
2024/01/03 00:40:54;;;;;;;8.07;1.55;;;;;;;6.61;100.00;97866.69;5038336;28;20105;-74
2024/01/03 00:43:40;;;;;;;12.07;1.83;;;;;;;6.59;100.00;97847.53;5027128;28;20049;-73
2024/01/03 00:46:25;;;;;;;10.27;1.80;;;;;;;6.60;100.00;97851.84;5029380;28;20088;-73
2024/01/03 00:49:12;;;;;;;7.63;1.67;;;;;;;6.60;100.00;97849.22;5027382;28;20179;-73
2024/01/03 00:51:58;;;;;;;7.55;1.33;;;;;;;6.61;100.00;97876.34;5040772;28;20063;-72
2024/01/03 00:54:44;;;;;;;6.68;1.50;;;;;;;6.62;100.00;97857.00;5030771;28;20072;-73
2024/01/03 00:57:30;;;;;;;9.05;1.92;;;;;;;6.61;100.00;97858.81;5027882;28;20049;-72
2024/01/03 01:00:16;;;;;;;5.10;1.60;;;;;;;6.64;100.00;97898.00;5018590;28;20041;-73
2024/01/03 01:03:03;;;;;;;11.70;1.48;;;;;;;6.63;100.00;97895.47;5030256;28;20045;-74
2024/01/03 01:05:49;;;;;;;8.95;1.75;;;;;;;6.62;100.00;97894.66;5033758;28;20504;-73
2024/01/03 01:08:35;;;;;;;8.50;1.60;;;;;;;6.62;100.00;97901.69;5030159;28;20038;-72
2024/01/03 01:11:20;;;;;;;7.65;1.70;;;;;;;6.63;100.00;97911.25;5035132;28;21811;-73
2024/01/03 01:14:06;;;;;;;8.38;1.75;;;;;;;6.65;100.00;97914.63;5032416;28;20060;-73
2024/01/03 01:16:54;;;;;;;12.38;2.55;;;;;;;6.68;100.00;97919.63;5036057;28;20038;-73
2024/01/03 01:19:40;;;;;;;14.10;2.10;;;;;;;6.70;100.00;97953.69;5031377;28;21897;-72
2024/01/03 01:22:26;;;;;;;6.65;1.40;;;;;;;6.70;100.00;97933.47;5031594;28;20045;-74
2024/01/03 01:25:12;;;;;;;11.65;2.47;;;;;;;6.70;100.00;97958.94;5030246;28;20041;-73
2024/01/03 01:27:58;;;;;;;9.30;1.67;;;;;;;6.71;100.00;97958.81;5028121;28;20049;-75
2024/01/03 01:30:44;;;;;;;9.93;1.70;;;;;;;6.73;100.00;97972.72;5029857;28;20057;-72
2024/01/03 01:33:29;;;;;;;10.05;1.90;;;;;;;6.72;100.00;97983.34;5028832;28;20052;-72
2024/01/03 01:36:15;;;;;;;5.28;1.40;;;;;;;6.71;100.00;98007.94;5032218;28;20053;-74
2024/01/03 01:39:01;;;;;;;14.23;2.80;;;;;;;6.72;100.00;98009.63;5032683;28;20230;-73
2024/01/03 01:41:47;;;;;;;12.00;1.55;;;;;;;6.68;100.00;98001.13;5066917;28;20140;-73
2024/01/03 01:44:32;;;;;;;7.78;1.30;;;;;;;6.69;100.00;98009.88;5067846;28;20040;-74
2024/01/03 01:47:18;;;;;;;8.60;1.50;;;;;;;6.68;100.00;98016.06;5066781;28;20036;-73
2024/01/03 01:50:08;;;;;;;4.57;1.70;;;;;;;6.69;100.00;98008.06;5056064;28;20045;-73
2024/01/03 01:52:53;;;;;;;12.43;2.08;;;;;;;6.69;100.00;98023.00;5066098;28;20055;-73
2024/01/03 01:55:40;;;;;;;9.77;1.83;;;;;;;6.70;100.00;98033.41;5068100;28;20048;-72
2024/01/03 01:58:25;;;;;;;11.23;1.50;;;;;;;6.72;100.00;98046.44;5065433;28;20044;-73
2024/01/03 02:01:11;;;;;;;10.95;1.30;;;;;;;6.73;100.00;98056.00;5062157;28;20056;-73
2024/01/03 02:03:57;;;;;;;6.03;1.65;;;;;;;6.73;100.00;98056.00;5069169;28;20165;-72
2024/01/03 02:06:43;;;;;;;9.52;1.55;;;;;;;6.76;100.00;98055.78;5056912;28;20070;-71
2024/01/03 02:09:28;;;;;;;11.38;1.30;;;;;;;6.78;100.00;98086.28;5054388;28;20053;-73
2024/01/03 02:12:14;;;;;;;7.88;1.42;;;;;;;6.80;100.00;98086.16;5066892;28;20045;-73
2024/01/03 02:15:00;;;;;;;5.32;1.70;;;;;;;6.81;100.00;98084.38;5067178;28;20051;-73
2024/01/03 02:17:46;;;;;;;10.75;1.98;;;;;;;6.82;100.00;98107.94;5056467;28;20040;-73
2024/01/03 02:20:35;;;;;;;8.75;1.67;;;;;;;6.84;100.00;98128.84;5056242;28;20040;-73
2024/01/03 02:23:21;;;;;;;9.43;1.52;;;;;;;6.87;100.00;98107.59;5065621;28;20051;-74
2024/01/03 02:26:08;;;;;;;13.00;1.85;;;;;;;6.89;100.00;98139.88;5064421;28;20072;-73
2024/01/03 02:28:53;;;;;;;7.65;1.63;;;;;;;6.90;100.00;98142.38;5054345;28;20033;-73
2024/01/03 02:31:40;;;;;;;6.10;1.55;;;;;;;6.93;100.00;98125.53;5061207;28;20044;-73
2024/01/03 02:34:30;;;;;;;7.65;1.40;;;;;;;6.94;100.00;98124.59;5063301;28;20067;-74
2024/01/03 02:37:18;;;;;;;8.10;1.15;;;;;;;6.95;100.00;98133.31;5054060;28;20566;-73
2024/01/03 02:40:04;;;;;;;11.13;1.80;;;;;;;6.99;100.00;98142.66;5052484;28;20053;-74
2024/01/03 02:42:50;;;;;;;5.25;1.27;;;;;;;7.01;100.00;98151.28;5060638;28;20437;-74
2024/01/03 02:45:36;;;;;;;6.22;1.42;;;;;;;7.00;100.00;98163.59;5062710;28;20044;-73
2024/01/03 02:48:21;;;;;;;5.22;1.10;;;;;;;7.03;100.00;98158.09;5018854;28;20107;-73
2024/01/03 02:51:07;;;;;;;5.97;1.30;;;;;;;7.04;100.00;98182.63;5059938;28;20056;-73
2024/01/03 02:53:53;;;;;;;8.82;1.90;;;;;;;7.04;100.00;98180.00;5049926;28;20040;-74
2024/01/03 02:56:39;;;;;;;5.95;1.30;;;;;;;7.06;100.00;98178.94;5057934;28;20048;-73
2024/01/03 02:59:25;;;;;;;6.80;1.85;;;;;;;7.06;100.00;98180.72;5058206;28;20055;-73
2024/01/03 03:02:11;;;;;;;14.85;2.30;;;;;;;7.07;100.00;98188.50;5057597;28;20071;-73
2024/01/03 03:04:57;;;;;;;9.38;1.90;;;;;;;7.07;100.00;98200.81;5058590;28;20044;-73
2024/01/03 03:07:42;;;;;;;9.27;1.10;;;;;;;7.06;100.00;98178.09;5046973;28;20048;-73
2024/01/03 03:10:28;;;;;;;6.30;1.08;;;;;;;7.06;100.00;98202.63;5055869;28;20048;-74
2024/01/03 03:13:14;;;;;;;4.80;1.10;;;;;;;7.07;100.00;98198.19;5053218;28;20059;-74
2024/01/03 03:16:00;;;;;;;8.57;1.40;;;;;;;7.10;100.00;98215.53;5045753;28;20609;-72
2024/01/03 03:18:46;;;;;;;6.95;1.30;;;;;;;7.10;100.00;98211.13;5039409;28;20060;-73
2024/01/03 03:21:32;;;;;;;6.53;1.60;;;;;;;7.10;100.00;98216.38;5054536;28;20076;-73
2024/01/03 03:24:17;;;;;;;6.53;1.25;;;;;;;7.10;100.00;98219.00;5055713;28;20037;-74
2024/01/03 03:27:03;;;;;;;6.60;1.30;;;;;;;7.11;100.00;98225.09;5058825;28;20044;-74
2024/01/03 03:29:50;;;;;;;5.47;1.33;;;;;;;7.10;100.00;98224.28;5047103;28;20052;-74
2024/01/03 03:32:35;;;;;;;4.55;1.60;;;;;;;7.10;100.00;98237.44;5055005;28;20048;-73
2024/01/03 03:35:21;;;;;;;4.28;1.30;;;;;;;7.10;100.00;98237.44;5056301;28;20070;-73
2024/01/03 03:38:07;;;;;;;5.05;1.35;;;;;;;7.13;100.00;98217.97;5055748;28;20088;-73
2024/01/03 03:40:53;;;;;;;7.22;1.45;;;;;;;7.10;100.00;98255.84;5055340;28;20064;-75
2024/01/03 03:43:39;;;;;;;3.13;1.10;;;;;;;7.10;100.00;98231.31;5055335;28;20045;-72
2024/01/03 03:46:25;;;;;;;12.25;1.67;;;;;;;7.09;100.00;98238.38;5046561;28;20051;-74
2024/01/03 03:49:11;;;;;;;5.25;1.30;;;;;;;7.10;100.00;98255.84;5057650;28;20178;-74
2024/01/03 03:51:59;;;;;;;4.88;1.30;;;;;;;7.13;100.00;98278.47;5045879;28;20399;-73
2024/01/03 03:54:44;;;;;;;8.43;2.08;;;;;;;7.14;100.00;98270.44;5057382;28;20198;-74
2024/01/03 03:57:30;;;;;;;6.85;1.10;;;;;;;7.15;100.00;98273.94;5058042;28;20074;-73
2024/01/03 04:00:16;;;;;;;3.97;1.17;;;;;;;7.16;100.00;98275.59;5043262;28;20407;-72
2024/01/03 04:03:06;;;;;;;10.85;1.38;;;;;;;7.18;100.00;98266.66;5057679;28;21523;-72
2024/01/03 04:05:51;;;;;;;2.65;1.05;;;;;;;7.22;100.00;98282.22;5047406;28;20076;-74
2024/01/03 04:08:37;;;;;;;5.78;1.10;;;;;;;7.23;100.00;98302.34;5058914;28;20044;-73
2024/01/03 04:11:23;;;;;;;6.95;1.45;;;;;;;7.22;100.00;98290.97;5049028;28;20053;-73
2024/01/03 04:14:09;;;;;;;3.10;1.20;;;;;;;7.23;100.00;98307.59;5044277;28;20032;-73
2024/01/03 04:16:55;;;;;;;4.45;1.83;;;;;;;7.24;100.00;98307.47;5043877;28;20045;-74
2024/01/03 04:19:41;;;;;;;6.15;1.02;;;;;;;7.25;100.00;98316.22;5059794;28;20052;-74
2024/01/03 04:22:27;;;;;;;7.25;1.23;;;;;;;7.24;100.00;98310.09;5059694;28;20048;-73
2024/01/03 04:25:13;;;;;;;1.25;0.90;;;;;;;7.25;100.00;98326.75;5060459;28;20044;-74
2024/01/03 04:27:58;;;;;;;8.23;1.30;;;;;;;7.26;100.00;98331.06;5051994;28;20047;-73
2024/01/03 04:30:44;;;;;;;5.85;1.38;;;;;;;7.27;100.00;98319.56;5060246;28;20173;-74
2024/01/03 04:33:30;;;;;;;6.38;1.42;;;;;;;7.28;100.00;98342.31;5058037;28;20848;-73
2024/01/03 04:36:15;;;;;;;9.70;1.42;;;;;;;7.28;100.00;98337.88;5063457;28;20433;-74
2024/01/03 04:39:01;;;;;;;6.60;1.63;;;;;;;7.25;100.00;98334.63;5062308;28;20083;-73
2024/01/03 04:41:50;;;;;;;6.38;1.10;;;;;;;7.19;100.00;98333.28;5057544;28;20055;-73
2024/01/03 04:44:36;;;;;;;5.30;1.65;;;;;;;7.11;100.00;98349.63;5046051;28;20068;-73
2024/01/03 04:47:22;;;;;;;3.97;1.00;;;;;;;7.05;100.00;98350.91;5057221;28;20040;-72
2024/01/03 04:50:08;;;;;;;5.55;0.93;;;;;;;6.99;100.00;98353.13;5057894;28;20090;-72
2024/01/03 04:52:53;;;;;;;7.10;1.00;;;;;;;6.96;100.00;98350.72;5056882;28;20166;-73
2024/01/03 04:55:39;;;;;;;5.55;1.15;;;;;;;6.94;100.00;98379.75;5053659;28;20051;-74
2024/01/03 04:58:25;;;;;;;5.65;1.45;;;;;;;6.89;100.00;98366.91;5057533;28;20068;-71
2024/01/03 05:01:10;;;;;;;2.83;1.00;;;;;;;6.83;100.00;98363.88;5056218;28;20055;-73
2024/01/03 05:03:56;;;;;;;4.13;0.77;;;;;;;6.81;100.00;98365.75;5062490;28;20044;-74
2024/01/03 05:06:43;;;;;;;6.50;1.23;;;;;;;6.78;100.00;98369.44;5064010;28;20040;-74
2024/01/03 05:09:30;;;;;;;4.20;1.23;;;;;;;6.78;100.00;98372.94;5062778;28;20067;-73
2024/01/03 05:12:15;;;;;;;6.72;1.65;;;;;;;6.78;100.00;98365.03;5066752;28;20488;-73
2024/01/03 05:15:05;;;;;;;14.02;1.73;;;;;;;6.81;100.00;98377.13;5065818;28;20045;-74
2024/01/03 05:17:51;;;;;;;10.00;1.80;;;;;;;6.87;100.00;98370.59;5063815;28;20036;-74
2024/01/03 05:20:36;;;;;;;11.27;1.85;;;;;;;6.91;100.00;98378.16;5047641;28;20044;-73
2024/01/03 05:23:22;;;;;;;16.88;2.60;;;;;;;6.95;100.00;98376.16;5055310;28;20076;-72
2024/01/03 05:26:08;;;;;;;13.63;2.65;;;;;;;7.03;100.00;98375.63;5049805;28;20049;-72
2024/01/03 05:28:54;;;;;;;8.73;2.33;;;;;;;7.05;100.00;98393.00;5049383;28;20131;-73
2024/01/03 05:31:39;;;;;;;12.93;2.30;;;;;;;7.08;100.00;98386.66;5048214;28;20044;-73
2024/01/03 05:34:25;;;;;;;12.23;2.28;;;;;;;7.11;100.00;98401.41;5037890;28;20082;-73
2024/01/03 05:37:11;;;;;;;17.25;2.22;;;;;;;7.11;100.00;98391.72;5049178;28;20431;-72
2024/01/03 05:39:56;;;;;;;8.10;2.00;;;;;;;7.12;100.00;98406.56;5036617;28;20114;-72
2024/01/03 05:42:42;;;;;;;17.02;2.85;;;;;;;7.10;100.00;98405.84;5024521;28;20110;-73
2024/01/03 05:45:28;;;;;;;13.73;3.08;;;;;;;7.12;100.00;98414.44;5050273;28;20167;-73
2024/01/03 05:48:13;;;;;;;10.57;2.15;;;;;;;7.13;100.00;98424.03;5036357;28;20037;-72
2024/01/03 05:50:59;;;;;;;13.30;2.17;;;;;;;7.14;100.00;98414.34;5050177;28;20075;-72
2024/01/03 05:53:47;;;;;;;18.45;2.05;;;;;;;7.11;100.00;98415.41;5048039;28;20579;-73
2024/01/03 05:56:32;;;;;;;14.95;2.97;;;;;;;7.13;100.00;98426.66;5048209;28;20078;-73
2024/01/03 05:59:18;;;;;;;9.02;1.58;;;;;;;7.13;100.00;98429.28;5049605;28;20117;-73
2024/01/03 06:02:04;;;;;;;12.23;2.45;;;;;;;7.16;100.00;98436.13;5051483;28;20550;-73
2024/01/03 06:04:50;;;;;;;11.00;2.13;;;;;;;7.16;100.00;98438.75;5037673;28;20484;-72
2024/01/03 06:07:35;;;;;;;9.65;2.17;;;;;;;7.18;100.00;98452.66;5041045;28;20048;-73
2024/01/03 06:10:21;;;;;;;11.00;1.85;;;;;;;7.18;100.00;98442.13;5047605;28;21894;-73
2024/01/03 06:13:07;;;;;;;11.25;2.17;;;;;;;7.21;100.00;98455.06;5048485;28;20572;-73
2024/01/03 06:15:52;;;;;;;13.82;2.00;;;;;;;7.22;100.00;98451.50;5048263;28;20064;-73
2024/01/03 06:18:38;;;;;;;12.30;2.53;;;;;;;7.23;100.00;98447.09;5046313;28;20790;-73
2024/01/03 06:21:24;;;;;;;12.52;1.88;;;;;;;7.23;100.00;98454.97;5047247;28;20510;-73
2024/01/03 06:24:09;;;;;;;14.68;2.17;;;;;;;7.25;100.00;98458.34;5030920;28;20128;-73
2024/01/03 06:26:55;;;;;;;17.83;2.10;;;;;;;7.24;100.00;98457.47;5047953;28;20102;-73
2024/01/03 06:29:42;;;;;;;13.63;2.15;;;;;;;7.25;100.00;98455.69;5029487;28;20047;-73
2024/01/03 06:32:28;;;;;;;13.13;1.88;;;;;;;7.25;100.00;98466.22;5047617;28;20565;-73
2024/01/03 06:35:14;;;;;;;11.73;2.90;;;;;;;7.25;100.00;98467.06;5047529;28;20549;-74
2024/01/03 06:37:59;;;;;;;9.27;1.73;;;;;;;7.26;100.00;98473.19;5047589;28;20555;-74
2024/01/03 06:40:45;;;;;;;21.63;2.65;;;;;;;7.27;100.00;98480.13;5050010;28;20049;-73
2024/01/03 06:43:31;;;;;;;13.68;2.80;;;;;;;7.28;100.00;98468.63;5047935;28;20049;-73
2024/01/03 06:46:16;;;;;;;12.93;1.88;;;;;;;7.30;100.00;98479.91;5048477;28;20105;-73
2024/01/03 06:49:02;;;;;;;13.63;2.58;;;;;;;7.31;100.00;98481.59;5048215;28;20045;-73
2024/01/03 06:51:48;;;;;;;12.30;2.05;;;;;;;7.34;100.00;98484.00;5048484;28;20135;-73
2024/01/03 06:54:35;;;;;;;11.30;2.88;;;;;;;7.33;100.00;98487.59;5047520;28;20048;-73
2024/01/03 06:57:20;;;;;;;12.52;2.50;;;;;;;7.35;100.00;98501.47;5048568;28;20049;-74
2024/01/03 07:00:06;;;;;;;5.25;1.70;;;;;;;7.34;100.00;98497.16;5047925;28;20056;-74
2024/01/03 07:02:52;;;;;;;10.77;1.60;;;;;;;7.34;100.00;98510.31;5047091;28;20041;-73
2024/01/03 07:05:40;;;;;;;7.07;1.83;;;;;;;7.34;100.00;98499.78;5047655;28;20495;-73
2024/01/03 07:08:26;;;;;;;14.48;2.30;;;;;;;7.33;100.00;98509.50;5047792;28;20067;-73
2024/01/03 07:11:12;;;;;;;8.30;1.63;;;;;;;7.33;100.00;98509.50;5046396;28;20056;-73
2024/01/03 07:13:59;;;;;;;6.35;1.50;;;;;;;7.33;100.00;98511.28;5049479;28;20127;-73
2024/01/03 07:16:44;;;;;;;14.55;2.40;;;;;;;7.32;100.00;98518.31;5047615;28;20568;-73
2024/01/03 07:19:30;;;;;;;18.00;2.50;;;;;;;7.32;100.00;98520.97;5046452;28;20591;-74
2024/01/03 07:22:16;;;;;;;10.15;1.70;;;;;;;7.31;100.00;98524.53;5032678;28;20508;-73
2024/01/03 07:25:02;;;;;;;7.78;1.75;;;;;;;7.32;100.00;98517.50;5047241;28;20036;-73
2024/01/03 07:27:48;;;;;;;11.75;1.85;;;;;;;7.32;100.00;98525.41;5045202;28;20047;-74
2024/01/03 07:30:33;;;;;;;10.23;1.90;;;;;;;7.32;100.00;98528.03;5047071;28;20053;-73
2024/01/03 07:33:19;;;;;;;10.75;1.90;;;;;;;7.31;100.00;98526.34;5047188;28;20223;-73
2024/01/03 07:36:05;;;;;;;9.25;1.83;;;;;;;7.27;100.00;98525.72;5046998;28;20555;-73
2024/01/03 07:38:51;;;;;;;14.98;1.90;;;;;;;7.26;100.00;98533.72;5049158;28;20070;-73
2024/01/03 07:41:36;;;;;;;7.28;2.35;;;;;;;7.26;100.00;98544.25;5050526;28;20191;-73
2024/01/03 07:44:22;;;;;;;10.20;2.55;;;;;;;7.23;100.00;98545.28;5049649;28;20127;-72
2024/01/03 07:47:09;;;;;;;11.15;1.70;;;;;;;7.22;100.00;98535.72;5047556;28;20045;-73
2024/01/03 07:49:55;;;;;;;7.72;1.35;;;;;;;7.22;100.00;98542.75;5049462;28;20048;-73
2024/01/03 07:52:44;;;;;;;10.65;1.55;;;;;;;7.20;100.00;98545.50;5049294;28;20049;-73
2024/01/03 07:55:29;;;;;;;12.52;2.08;;;;;;;7.15;100.00;98558.97;5038335;28;20043;-73
2024/01/03 07:58:15;;;;;;;8.25;1.75;;;;;;;7.13;100.00;98566.13;5051516;28;20040;-73
2024/01/03 08:01:01;;;;;;;7.68;1.95;;;;;;;7.12;100.00;98580.22;5032994;28;20058;-73
2024/01/03 08:03:46;;;;;;;7.78;1.58;;;;;;;7.11;100.00;98577.69;5048660;28;20037;-73
2024/01/03 08:06:32;;;;;;;6.82;1.48;;;;;;;7.07;100.00;98563.91;5048696;28;20040;-74
2024/01/03 08:09:18;;;;;;;8.23;1.48;;;;;;;7.08;100.00;98573.47;5037407;28;20044;-72
2024/01/03 08:12:10;;;;;;;6.82;1.60;;;;;;;7.06;100.00;98583.28;5050347;28;20312;-72
2024/01/03 08:14:56;;;;;;;6.78;1.67;;;;;;;7.06;100.00;98580.63;5047158;28;20558;-72
2024/01/03 08:17:41;;;;;;;10.88;1.90;;;;;;;7.05;100.00;98589.47;5036221;28;20115;-72
2024/01/03 08:20:27;;;;;;;14.57;2.58;;;;;;;7.03;100.00;98586.94;5050580;28;20041;-72
2024/01/03 08:23:13;;;;;;;12.35;2.45;;;;;;;7.03;100.00;98589.56;5049527;28;20040;-73
2024/01/03 08:25:59;;;;;;;11.13;1.85;;;;;;;7.02;100.00;98579.16;5048656;28;20044;-73
2024/01/03 08:28:45;;;;;;;6.22;1.90;;;;;;;7.02;100.00;98587.03;5047947;28;20123;-74
2024/01/03 08:31:31;;;;;;;11.38;2.13;;;;;;;7.03;100.00;98596.66;5051475;28;20143;-74
2024/01/03 08:34:17;;;;;;;6.35;1.92;;;;;;;7.03;100.00;98588.75;5039741;28;20049;-73
2024/01/03 08:37:03;;;;;;;10.15;1.92;;;;;;;7.02;100.00;98595.78;5039940;28;20479;-73
2024/01/03 08:39:49;;;;;;;6.82;1.60;;;;;;;7.01;100.00;98599.38;5052632;28;20454;-73
2024/01/03 08:42:35;;;;;;;7.93;1.75;;;;;;;7.01;100.00;98607.25;5052373;28;20071;-73
2024/01/03 08:45:24;;;;;;;8.20;1.70;;;;;;;7.01;100.00;98609.03;5049554;28;20045;-73
2024/01/03 08:48:10;;;;;;;10.48;2.08;;;;;;;7.01;100.00;98606.41;5029466;28;20049;-73
2024/01/03 08:50:55;;;;;;;9.38;2.20;;;;;;;7.01;100.00;98607.25;5051120;28;20075;-72
2024/01/03 08:53:41;;;;;;;7.15;1.67;;;;;;;7.02;100.00;98613.34;5055515;28;20044;-73
2024/01/03 08:56:27;;;;;;;5.75;1.77;;;;;;;7.02;100.00;98605.47;5050580;28;20045;-74
2024/01/03 08:59:13;;;;;;;7.90;2.10;;;;;;;7.03;100.00;98601.91;5051888;28;20495;-73
2024/01/03 09:01:58;;;;;;;8.10;1.90;;;;;;;7.04;100.00;98600.97;5055613;28;21995;-73
2024/01/03 09:04:44;;;;;;;12.95;1.98;;;;;;;7.05;100.00;98621.06;5039940;28;20657;-73
2024/01/03 09:07:30;;;;;;;7.85;1.42;;;;;;;7.06;100.00;98615.69;5052089;28;20041;-73
2024/01/03 09:10:15;;;;;;;7.82;1.67;;;;;;;7.09;100.00;98627.81;5049208;28;20061;-73
2024/01/03 09:13:01;;;;;;;6.63;1.75;;;;;;;7.13;100.00;98628.44;5052061;28;20157;-72
2024/01/03 09:15:47;;;;;;;6.53;1.70;;;;;;;7.14;100.00;98616.97;5051135;28;20037;-73
2024/01/03 09:18:33;;;;;;;6.20;1.35;;;;;;;7.16;100.00;98623.81;5051073;28;20522;-73
2024/01/03 09:21:19;;;;;;;5.38;1.40;;;;;;;7.18;100.00;98637.72;5051070;28;20118;-73
2024/01/03 09:24:04;;;;;;;8.23;1.60;;;;;;;7.22;100.00;98650.66;5050915;28;20045;-73
2024/01/03 09:26:50;;;;;;;5.43;1.40;;;;;;;7.20;100.00;98641.09;5051222;28;20573;-73
2024/01/03 09:29:36;;;;;;;10.45;1.70;;;;;;;7.23;100.00;98649.75;5040710;28;20553;-73
2024/01/03 09:32:22;;;;;;;6.53;1.30;;;;;;;7.24;100.00;98656.69;5050674;28;20423;-73
2024/01/03 09:35:10;;;;;;;5.28;1.40;;;;;;;7.26;100.00;98652.16;5050624;28;20037;-73
2024/01/03 09:37:56;;;;;;;6.07;1.65;;;;;;;7.29;100.00;98654.56;5040982;28;20067;-73
2024/01/03 09:40:41;;;;;;;9.15;1.88;;;;;;;7.29;100.00;98659.81;5050114;28;20052;-73
2024/01/03 09:43:27;;;;;;;11.70;1.65;;;;;;;7.31;100.00;98658.78;5040337;28;20514;-73
2024/01/03 09:46:13;;;;;;;9.27;1.65;;;;;;;7.35;100.00;98664.69;5050560;28;20040;-73
2024/01/03 09:48:59;;;;;;;7.45;1.48;;;;;;;7.38;100.00;98661.88;5039537;28;20068;-73
2024/01/03 09:51:50;;;;;;;5.82;1.30;;;;;;;7.42;100.00;98660.69;5040527;28;20410;-74
2024/01/03 09:54:36;;;;;;;6.90;1.30;;;;;;;7.47;100.00;98658.59;5034833;28;20664;-73
2024/01/03 09:57:23;;;;;;;8.13;1.60;;;;;;;7.51;100.00;98668.94;5039992;28;20041;-73
2024/01/03 10:00:09;;;;;;;4.47;1.30;;;;;;;7.53;100.00;98667.91;5031347;28;20044;-73
2024/01/03 10:03:00;;;;;;;7.22;1.48;;;;;;;7.54;100.00;98669.56;5049988;28;20052;-73
2024/01/03 10:05:46;;;;;;;4.90;1.17;;;;;;;7.54;100.00;98689.78;5037261;28;20103;-73
2024/01/03 10:08:31;;;;;;;13.95;2.08;;;;;;;7.49;100.00;98682.19;5050386;28;20966;-73
2024/01/03 10:11:22;;;;;;;9.73;2.10;;;;;;;7.47;100.00;98692.00;5051336;28;20040;-74
2024/01/03 10:14:17;;;;;;;9.38;1.58;;;;;;;7.45;100.00;98697.38;5049246;28;20072;-73
2024/01/03 10:17:10;;;;;;;8.30;1.25;;;;;;;7.46;100.00;98699.03;5049579;28;20150;-72
2024/01/03 10:19:56;;;;;;;5.57;1.10;;;;;;;7.48;100.00;98691.88;5050883;28;20060;-73
2024/01/03 10:22:41;;;;;;;6.00;1.50;;;;;;;7.55;100.00;98712.53;5049440;28;20808;-73
2024/01/03 10:25:27;;;;;;;7.97;1.38;;;;;;;7.58;100.00;98712.34;5048628;28;21635;-73
2024/01/03 10:28:17;;;;;;;8.25;1.50;;;;;;;7.61;100.00;98706.84;5036493;28;20040;-73
2024/01/03 10:31:07;;;;;;;10.18;1.98;;;;;;;7.66;100.00;98703.91;5037929;28;20067;-73
2024/01/03 10:33:52;;;;;;;14.00;2.47;;;;;;;7.69;100.00;98709.00;5025603;28;20049;-73
2024/01/03 10:36:45;;;;;;;11.57;2.05;;;;;;;7.73;100.00;98707.81;5049233;28;20058;-73
2024/01/03 10:39:34;;;;;;;13.60;2.30;;;;;;;7.76;100.00;98705.00;5037976;28;20083;-73
2024/01/03 10:42:21;;;;;;;11.65;1.52;;;;;;;7.80;100.00;98700.34;5036938;28;20068;-73
2024/01/03 10:45:07;;;;;;;13.68;2.13;;;;;;;7.80;100.00;98714.34;5049837;28;20049;-73
2024/01/03 10:47:54;;;;;;;12.35;1.83;;;;;;;7.81;100.00;98708.16;5036855;28;20040;-73
2024/01/03 10:50:42;;;;;;;12.60;2.05;;;;;;;7.81;100.00;98713.44;5049340;28;20053;-73
2024/01/03 10:53:30;;;;;;;9.32;2.10;;;;;;;7.80;100.00;98714.34;5037612;28;20052;-73
2024/01/03 10:56:16;;;;;;;9.65;1.90;;;;;;;7.80;100.00;98717.00;5035509;28;20048;-73
2024/01/03 10:59:03;;;;;;;8.32;1.50;;;;;;;7.80;100.00;98701.19;5037823;28;20416;-73
2024/01/03 11:02:04;;;;;;;8.88;1.75;;;;;;;7.81;100.00;98709.94;5048575;28;20742;-73
2024/01/03 11:05:01;;;;;;;9.73;1.88;;;;;;;7.85;100.00;98708.78;5038197;28;20050;-73
2024/01/03 11:07:51;;;;;;;9.70;1.85;;;;;;;7.88;100.00;98704.16;5050590;28;20131;-73
2024/01/03 11:10:51;;;;;;;17.65;2.60;;;;;;;7.90;100.00;98706.66;5037162;28;20052;-74
2024/01/03 11:13:39;;;;;;;12.88;1.50;;;;;;;7.91;100.00;98708.38;5048948;28;20978;-73
2024/01/03 11:16:37;;;;;;;9.63;1.70;;;;;;;7.92;100.00;98702.16;5040355;28;22103;-73
2024/01/03 11:19:30;;;;;;;11.00;2.63;;;;;;;7.93;100.00;98708.25;5052152;28;20044;-73
2024/01/03 11:22:16;;;;;;;5.22;1.80;;;;;;;7.92;100.00;98710.06;5051184;28;20142;-75
2024/01/03 11:25:05;;;;;;;8.82;1.67;;;;;;;7.90;100.00;98711.94;5048873;28;20032;-74
2024/01/03 11:28:30;;;;;;;10.88;1.70;;;;;;;7.89;100.00;98704.97;5038444;28;20569;-74
2024/01/03 11:31:54;;;;;;;14.60;1.90;;;;;;;7.86;100.00;98703.41;5038130;28;20044;-73
2024/01/03 11:34:47;;;;;;;6.90;1.63;;;;;;;7.86;100.00;98715.75;5048194;28;20048;-74
2024/01/03 11:37:35;;;;;;;10.93;2.05;;;;;;;7.85;100.00;98704.34;5038342;28;20145;-73
2024/01/03 11:40:20;;;;;;;10.05;1.98;;;;;;;7.83;100.00;98708.03;5038367;28;20117;-73
2024/01/03 11:43:06;;;;;;;8.35;1.65;;;;;;;7.82;100.00;98703.72;5038800;28;20128;-73
2024/01/03 11:46:11;;;;;;;7.35;1.58;;;;;;;7.81;100.00;98712.56;5050506;28;20078;-74
2024/01/03 11:49:07;;;;;;;10.43;1.67;;;;;;;7.80;100.00;98716.16;5048735;28;20473;-73
2024/01/03 11:51:53;;;;;;;9.88;2.00;;;;;;;7.82;100.00;98711.63;5030942;28;20044;-74
2024/01/03 11:54:39;;;;;;;11.05;2.22;;;;;;;7.86;100.00;98718.38;5040048;28;20041;-73
2024/01/03 11:57:24;;;;;;;8.57;1.75;;;;;;;7.88;100.00;98705.94;5048240;28;20056;-74
2024/01/03 12:00:15;;;;;;;6.40;1.50;;;;;;;7.90;100.00;98705.84;5047991;28;20036;-73
2024/01/03 12:03:02;;;;;;;11.23;2.10;;;;;;;7.91;100.00;98705.75;5049340;28;20059;-74
2024/01/03 12:05:48;;;;;;;11.55;2.63;;;;;;;7.92;100.00;98715.34;5041419;28;20644;-74
2024/01/03 12:08:37;;;;;;;12.43;2.17;;;;;;;7.92;100.00;98704.78;5053833;28;20036;-74
2024/01/03 12:11:22;;;;;;;5.88;1.65;;;;;;;7.95;100.00;98709.00;5037614;28;20045;-73
2024/01/03 12:14:08;;;;;;;9.52;1.98;;;;;;;7.97;100.00;98717.66;5036716;28;22076;-73
2024/01/03 12:16:54;;;;;;;14.52;2.00;;;;;;;7.98;100.00;98714.91;5041626;28;20138;-72
2024/01/03 12:19:40;;;;;;;9.20;2.10;;;;;;;7.99;100.00;98711.31;5053685;28;20036;-73
2024/01/03 12:22:25;;;;;;;9.68;1.77;;;;;;;8.00;100.00;98712.16;5037658;28;20113;-73
2024/01/03 12:25:24;;;;;;;11.27;2.03;;;;;;;8.01;100.00;98706.78;5042180;28;20090;-73
2024/01/03 12:28:12;;;;;;;11.65;1.70;;;;;;;8.04;100.00;98704.88;5052751;28;20116;-73
2024/01/03 12:30:59;;;;;;;9.38;1.60;;;;;;;8.05;100.00;98714.50;5037067;28;20475;-73
2024/01/03 12:33:45;;;;;;;8.90;1.75;;;;;;;8.06;100.00;98710.91;5051419;28;20064;-74
2024/01/03 12:36:31;;;;;;;10.25;2.03;;;;;;;8.05;100.00;98714.50;5048229;28;20176;-73
2024/01/03 12:39:17;;;;;;;15.48;2.97;;;;;;;8.05;100.00;98707.41;5050585;28;20037;-73
2024/01/03 12:42:11;;;;;;;8.15;2.15;;;;;;;8.03;100.00;98706.69;5050079;28;20503;-74
2024/01/03 12:44:57;;;;;;;10.95;2.10;;;;;;;8.01;100.00;98709.41;5034912;28;20040;-73
2024/01/03 12:47:43;;;;;;;7.47;1.70;;;;;;;8.00;100.00;98705.09;5050934;28;20060;-73
2024/01/03 12:50:29;;;;;;;15.85;2.30;;;;;;;7.98;100.00;98712.28;5049357;28;20052;-74
2024/01/03 12:53:14;;;;;;;13.63;1.92;;;;;;;7.95;100.00;98701.94;5054693;28;20036;-74
2024/01/03 12:56:00;;;;;;;7.10;1.45;;;;;;;7.92;100.00;98712.69;5049086;28;20051;-74
2024/01/03 12:58:46;;;;;;;6.60;1.42;;;;;;;7.91;100.00;98707.53;5050789;28;20045;-74
2024/01/03 13:01:32;;;;;;;11.40;2.13;;;;;;;7.89;100.00;98712.88;5050964;28;20048;-73